Terminal Aerodrome Forecast
Issued by NWS Des Moines, IA

Home | Current Version | Previous Version | Text Only | Print | Product List | Glossary On
Versions: 1 2 3 4 5 6 7 8 9 10 11 12 13 14 15 16 17 18 19 20 21 22 23 24 25 26
000
FTUS43 KDMX 280528
TAFALO
TAF
KALO 280528Z 2806/0106 12003KT P6SM SKC
     FM281400 14008KT P6SM SCT100
     FM281800 14008KT P6SM BKN080
     FM282000 16008KT P6SM SCT011 BKN040
     FM282300 16010G13KT P6SM VCSH OVC022=

USA.gov is the U.S. government's official web portal to all federal, state and local government web resources and services.